sensor_id;sensor_type;location;lat;lon;timestamp;P1;durP1;ratioP1;P2;durP2;ratioP2
9449;SDS011;4763;48.370;10.874;2022-10-31T00:01:29;6.67;;;4.63;;
9449;SDS011;4763;48.370;10.874;2022-10-31T00:03:58;8.43;;;5.10;;
9449;SDS011;4763;48.370;10.874;2022-10-31T00:06:26;6.33;;;4.57;;
9449;SDS011;4763;48.370;10.874;2022-10-31T00:08:55;9.20;;;5.20;;
9449;SDS011;4763;48.370;10.874;2022-10-31T00:11:23;7.47;;;5.17;;
9449;SDS011;4763;48.370;10.874;2022-10-31T00:13:52;9.67;;;4.63;;
9449;SDS011;4763;48.370;10.874;2022-10-31T00:16:19;10.43;;;5.60;;
9449;SDS011;4763;48.370;10.874;2022-10-31T00:18:47;6.60;;;4.63;;
9449;SDS011;4763;48.370;10.874;2022-10-31T00:21:15;12.90;;;5.20;;
9449;SDS011;4763;48.370;10.874;2022-10-31T00:23:42;8.93;;;5.27;;
9449;SDS011;4763;48.370;10.874;2022-10-31T00:26:09;8.80;;;4.80;;
9449;SDS011;4763;48.370;10.874;2022-10-31T00:28:36;10.30;;;5.10;;
9449;SDS011;4763;48.370;10.874;2022-10-31T00:31:06;8.77;;;5.50;;
9449;SDS011;4763;48.370;10.874;2022-10-31T00:33:35;7.90;;;5.13;;
9449;SDS011;4763;48.370;10.874;2022-10-31T00:36:03;8.53;;;5.50;;
9449;SDS011;4763;48.370;10.874;2022-10-31T00:38:30;11.27;;;5.40;;
9449;SDS011;4763;48.370;10.874;2022-10-31T00:40:58;10.83;;;5.77;;
9449;SDS011;4763;48.370;10.874;2022-10-31T00:43:30;11.00;;;5.13;;
9449;SDS011;4763;48.370;10.874;2022-10-31T00:45:57;9.57;;;5.93;;
9449;SDS011;4763;48.370;10.874;2022-10-31T00:48:25;8.60;;;5.67;;
9449;SDS011;4763;48.370;10.874;2022-10-31T00:50:52;13.60;;;7.13;;
9449;SDS011;4763;48.370;10.874;2022-10-31T00:53:18;12.57;;;5.77;;
9449;SDS011;4763;48.370;10.874;2022-10-31T00:55:48;11.23;;;5.60;;
9449;SDS011;4763;48.370;10.874;2022-10-31T00:58:15;16.63;;;6.20;;
9449;SDS011;4763;48.370;10.874;2022-10-31T01:00:42;11.87;;;5.50;;
9449;SDS011;4763;48.370;10.874;2022-10-31T01:03:09;8.23;;;5.37;;
9449;SDS011;4763;48.370;10.874;2022-10-31T01:05:37;7.50;;;5.33;;
9449;SDS011;4763;48.370;10.874;2022-10-31T01:08:04;9.17;;;5.37;;
9449;SDS011;4763;48.370;10.874;2022-10-31T01:10:31;12.20;;;5.20;;
9449;SDS011;4763;48.370;10.874;2022-10-31T01:12:57;8.50;;;5.73;;
9449;SDS011;4763;48.370;10.874;2022-10-31T01:15:24;12.67;;;5.40;;
9449;SDS011;4763;48.370;10.874;2022-10-31T01:17:51;8.87;;;4.90;;
9449;SDS011;4763;48.370;10.874;2022-10-31T01:20:18;9.27;;;5.17;;
9449;SDS011;4763;48.370;10.874;2022-10-31T01:22:46;11.90;;;5.13;;
9449;SDS011;4763;48.370;10.874;2022-10-31T01:25:13;9.43;;;5.13;;
9449;SDS011;4763;48.370;10.874;2022-10-31T01:27:39;8.67;;;4.53;;
9449;SDS011;4763;48.370;10.874;2022-10-31T01:30:07;10.57;;;5.40;;
9449;SDS011;4763;48.370;10.874;2022-10-31T01:32:34;8.17;;;5.37;;
9449;SDS011;4763;48.370;10.874;2022-10-31T01:35:01;9.37;;;4.87;;
9449;SDS011;4763;48.370;10.874;2022-10-31T01:37:27;9.40;;;4.93;;
9449;SDS011;4763;48.370;10.874;2022-10-31T01:39:58;12.83;;;5.30;;
9449;SDS011;4763;48.370;10.874;2022-10-31T01:42:25;8.37;;;4.43;;
9449;SDS011;4763;48.370;10.874;2022-10-31T01:44:56;8.23;;;5.30;;
9449;SDS011;4763;48.370;10.874;2022-10-31T01:47:33;9.20;;;5.20;;
9449;SDS011;4763;48.370;10.874;2022-10-31T01:50:06;8.80;;;5.80;;
9449;SDS011;4763;48.370;10.874;2022-10-31T01:52:39;14.30;;;4.90;;
9449;SDS011;4763;48.370;10.874;2022-10-31T01:55:12;7.50;;;4.37;;
9449;SDS011;4763;48.370;10.874;2022-10-31T01:57:43;8.13;;;5.53;;
9449;SDS011;4763;48.370;10.874;2022-10-31T02:00:12;7.87;;;4.43;;
9449;SDS011;4763;48.370;10.874;2022-10-31T02:02:40;6.53;;;4.70;;
9449;SDS011;4763;48.370;10.874;2022-10-31T02:05:09;7.27;;;4.67;;
9449;SDS011;4763;48.370;10.874;2022-10-31T02:07:39;9.60;;;4.53;;
9449;SDS011;4763;48.370;10.874;2022-10-31T02:10:10;8.73;;;5.40;;
9449;SDS011;4763;48.370;10.874;2022-10-31T02:12:37;8.60;;;4.57;;
9449;SDS011;4763;48.370;10.874;2022-10-31T02:15:05;9.63;;;5.23;;
9449;SDS011;4763;48.370;10.874;2022-10-31T02:17:33;7.40;;;4.70;;
9449;SDS011;4763;48.370;10.874;2022-10-31T02:20:02;14.03;;;4.80;;
9449;SDS011;4763;48.370;10.874;2022-10-31T02:22:39;6.33;;;3.97;;
9449;SDS011;4763;48.370;10.874;2022-10-31T02:25:16;5.77;;;4.10;;
9449;SDS011;4763;48.370;10.874;2022-10-31T02:28:00;9.53;;;4.10;;
9449;SDS011;4763;48.370;10.874;2022-10-31T02:30:56;6.97;;;4.27;;
9449;SDS011;4763;48.370;10.874;2022-10-31T02:33:30;7.17;;;4.03;;
9449;SDS011;4763;48.370;10.874;2022-10-31T02:36:04;8.50;;;5.00;;
9449;SDS011;4763;48.370;10.874;2022-10-31T02:38:38;8.67;;;4.07;;
9449;SDS011;4763;48.370;10.874;2022-10-31T02:41:18;6.87;;;4.07;;
9449;SDS011;4763;48.370;10.874;2022-10-31T02:43:54;8.27;;;5.07;;
9449;SDS011;4763;48.370;10.874;2022-10-31T02:46:32;7.47;;;4.43;;
9449;SDS011;4763;48.370;10.874;2022-10-31T02:49:03;8.27;;;4.80;;
9449;SDS011;4763;48.370;10.874;2022-10-31T02:51:36;9.17;;;5.07;;
9449;SDS011;4763;48.370;10.874;2022-10-31T02:54:03;5.87;;;4.00;;
9449;SDS011;4763;48.370;10.874;2022-10-31T02:56:30;5.67;;;4.60;;
9449;SDS011;4763;48.370;10.874;2022-10-31T02:58:57;8.93;;;4.20;;
9449;SDS011;4763;48.370;10.874;2022-10-31T03:01:44;5.73;;;4.30;;
9449;SDS011;4763;48.370;10.874;2022-10-31T03:04:43;8.20;;;4.10;;
9449;SDS011;4763;48.370;10.874;2022-10-31T03:07:28;9.03;;;4.93;;
9449;SDS011;4763;48.370;10.874;2022-10-31T03:10:03;7.13;;;3.97;;
9449;SDS011;4763;48.370;10.874;2022-10-31T03:12:38;6.97;;;4.00;;
9449;SDS011;4763;48.370;10.874;2022-10-31T03:15:13;7.93;;;3.60;;
9449;SDS011;4763;48.370;10.874;2022-10-31T03:17:49;6.17;;;4.40;;
9449;SDS011;4763;48.370;10.874;2022-10-31T03:20:21;9.20;;;4.67;;
9449;SDS011;4763;48.370;10.874;2022-10-31T03:22:52;8.97;;;4.83;;
9449;SDS011;4763;48.370;10.874;2022-10-31T03:25:21;10.47;;;4.33;;
9449;SDS011;4763;48.370;10.874;2022-10-31T03:27:49;8.63;;;4.17;;
9449;SDS011;4763;48.370;10.874;2022-10-31T03:30:18;9.73;;;4.07;;
9449;SDS011;4763;48.370;10.874;2022-10-31T03:32:46;9.07;;;4.20;;
9449;SDS011;4763;48.370;10.874;2022-10-31T03:35:19;9.23;;;4.30;;
9449;SDS011;4763;48.370;10.874;2022-10-31T03:37:48;6.47;;;4.23;;
9449;SDS011;4763;48.370;10.874;2022-10-31T03:40:18;8.57;;;5.07;;
9449;SDS011;4763;48.370;10.874;2022-10-31T03:42:49;5.43;;;3.50;;
9449;SDS011;4763;48.370;10.874;2022-10-31T03:45:21;8.33;;;5.03;;
9449;SDS011;4763;48.370;10.874;2022-10-31T03:47:52;10.90;;;4.47;;
9449;SDS011;4763;48.370;10.874;2022-10-31T03:50:19;6.43;;;4.03;;
9449;SDS011;4763;48.370;10.874;2022-10-31T03:52:48;8.83;;;4.67;;
9449;SDS011;4763;48.370;10.874;2022-10-31T03:55:22;7.27;;;4.50;;
9449;SDS011;4763;48.370;10.874;2022-10-31T03:57:55;6.00;;;4.20;;
9449;SDS011;4763;48.370;10.874;2022-10-31T04:00:25;15.20;;;4.67;;
9449;SDS011;4763;48.370;10.874;2022-10-31T04:02:55;5.47;;;3.47;;
9449;SDS011;4763;48.370;10.874;2022-10-31T04:05:26;5.67;;;3.50;;
9449;SDS011;4763;48.370;10.874;2022-10-31T04:07:55;7.43;;;4.33;;
9449;SDS011;4763;48.370;10.874;2022-10-31T04:10:25;7.27;;;4.57;;
9449;SDS011;4763;48.370;10.874;2022-10-31T04:12:54;10.17;;;4.63;;
9449;SDS011;4763;48.370;10.874;2022-10-31T04:15:25;6.80;;;4.53;;
9449;SDS011;4763;48.370;10.874;2022-10-31T04:17:55;6.73;;;4.23;;
9449;SDS011;4763;48.370;10.874;2022-10-31T04:20:31;7.00;;;4.47;;
9449;SDS011;4763;48.370;10.874;2022-10-31T04:22:59;6.87;;;4.37;;
9449;SDS011;4763;48.370;10.874;2022-10-31T04:25:26;4.93;;;3.90;;
9449;SDS011;4763;48.370;10.874;2022-10-31T04:27:53;11.03;;;4.43;;
9449;SDS011;4763;48.370;10.874;2022-10-31T04:30:20;8.97;;;4.53;;
9449;SDS011;4763;48.370;10.874;2022-10-31T04:32:47;7.67;;;4.40;;
9449;SDS011;4763;48.370;10.874;2022-10-31T04:35:15;8.67;;;4.50;;
9449;SDS011;4763;48.370;10.874;2022-10-31T04:37:42;8.43;;;4.90;;
9449;SDS011;4763;48.370;10.874;2022-10-31T04:40:09;9.80;;;4.80;;
9449;SDS011;4763;48.370;10.874;2022-10-31T04:42:37;13.70;;;5.00;;
9449;SDS011;4763;48.370;10.874;2022-10-31T04:45:04;6.93;;;4.47;;
9449;SDS011;4763;48.370;10.874;2022-10-31T04:47:31;7.83;;;4.30;;
9449;SDS011;4763;48.370;10.874;2022-10-31T04:49:58;17.93;;;5.17;;
9449;SDS011;4763;48.370;10.874;2022-10-31T04:52:26;6.13;;;4.17;;
9449;SDS011;4763;48.370;10.874;2022-10-31T04:54:53;5.93;;;4.00;;
9449;SDS011;4763;48.370;10.874;2022-10-31T04:57:20;8.60;;;4.17;;
9449;SDS011;4763;48.370;10.874;2022-10-31T04:59:47;5.23;;;3.70;;
9449;SDS011;4763;48.370;10.874;2022-10-31T05:02:14;5.70;;;4.37;;
9449;SDS011;4763;48.370;10.874;2022-10-31T05:04:40;5.67;;;3.73;;
9449;SDS011;4763;48.370;10.874;2022-10-31T05:07:07;6.57;;;4.27;;
9449;SDS011;4763;48.370;10.874;2022-10-31T05:09:35;5.70;;;4.13;;
9449;SDS011;4763;48.370;10.874;2022-10-31T05:12:02;10.10;;;4.57;;
9449;SDS011;4763;48.370;10.874;2022-10-31T05:14:29;7.10;;;4.20;;
9449;SDS011;4763;48.370;10.874;2022-10-31T05:16:56;7.03;;;4.07;;
9449;SDS011;4763;48.370;10.874;2022-10-31T05:19:25;7.43;;;4.20;;
9449;SDS011;4763;48.370;10.874;2022-10-31T05:21:52;7.73;;;3.67;;
9449;SDS011;4763;48.370;10.874;2022-10-31T05:24:19;5.73;;;4.10;;
9449;SDS011;4763;48.370;10.874;2022-10-31T05:26:48;7.37;;;4.57;;
9449;SDS011;4763;48.370;10.874;2022-10-31T05:29:15;7.53;;;3.73;;
9449;SDS011;4763;48.370;10.874;2022-10-31T05:31:42;5.60;;;3.53;;
9449;SDS011;4763;48.370;10.874;2022-10-31T05:34:09;9.87;;;4.23;;
9449;SDS011;4763;48.370;10.874;2022-10-31T05:36:36;8.77;;;4.30;;
9449;SDS011;4763;48.370;10.874;2022-10-31T05:39:02;6.03;;;3.90;;
9449;SDS011;4763;48.370;10.874;2022-10-31T05:41:29;12.97;;;4.40;;
9449;SDS011;4763;48.370;10.874;2022-10-31T05:43:57;5.93;;;4.20;;
9449;SDS011;4763;48.370;10.874;2022-10-31T05:46:24;10.57;;;4.23;;
9449;SDS011;4763;48.370;10.874;2022-10-31T05:48:51;7.37;;;4.73;;
9449;SDS011;4763;48.370;10.874;2022-10-31T05:51:18;8.67;;;4.67;;
9449;SDS011;4763;48.370;10.874;2022-10-31T05:53:45;5.67;;;3.90;;
9449;SDS011;4763;48.370;10.874;2022-10-31T05:56:12;7.17;;;4.40;;
9449;SDS011;4763;48.370;10.874;2022-10-31T05:58:39;7.93;;;4.60;;
9449;SDS011;4763;48.370;10.874;2022-10-31T06:01:07;12.93;;;4.30;;
9449;SDS011;4763;48.370;10.874;2022-10-31T06:03:34;9.53;;;4.27;;
9449;SDS011;4763;48.370;10.874;2022-10-31T06:06:00;6.73;;;4.17;;
9449;SDS011;4763;48.370;10.874;2022-10-31T06:08:27;6.63;;;4.20;;
9449;SDS011;4763;48.370;10.874;2022-10-31T06:10:54;8.77;;;4.73;;
9449;SDS011;4763;48.370;10.874;2022-10-31T06:13:20;6.43;;;4.07;;
9449;SDS011;4763;48.370;10.874;2022-10-31T06:15:47;8.17;;;3.67;;
9449;SDS011;4763;48.370;10.874;2022-10-31T06:18:15;6.40;;;4.40;;
9449;SDS011;4763;48.370;10.874;2022-10-31T06:20:42;5.87;;;4.60;;
9449;SDS011;4763;48.370;10.874;2022-10-31T06:23:09;7.73;;;3.87;;
9449;SDS011;4763;48.370;10.874;2022-10-31T06:25:36;7.37;;;4.13;;
9449;SDS011;4763;48.370;10.874;2022-10-31T06:28:02;11.10;;;4.40;;
9449;SDS011;4763;48.370;10.874;2022-10-31T06:30:29;7.07;;;4.47;;
9449;SDS011;4763;48.370;10.874;2022-10-31T06:33:01;6.90;;;4.53;;
9449;SDS011;4763;48.370;10.874;2022-10-31T06:35:29;6.23;;;4.47;;
9449;SDS011;4763;48.370;10.874;2022-10-31T06:37:56;6.83;;;4.03;;
9449;SDS011;4763;48.370;10.874;2022-10-31T06:40:23;8.63;;;4.60;;
9449;SDS011;4763;48.370;10.874;2022-10-31T06:42:55;7.40;;;4.27;;
9449;SDS011;4763;48.370;10.874;2022-10-31T06:45:23;7.57;;;4.57;;
9449;SDS011;4763;48.370;10.874;2022-10-31T06:47:50;7.70;;;4.20;;
9449;SDS011;4763;48.370;10.874;2022-10-31T06:50:18;7.83;;;4.57;;
9449;SDS011;4763;48.370;10.874;2022-10-31T06:52:50;7.13;;;4.40;;
9449;SDS011;4763;48.370;10.874;2022-10-31T06:55:17;7.73;;;4.60;;
9449;SDS011;4763;48.370;10.874;2022-10-31T06:57:48;6.63;;;4.13;;
9449;SDS011;4763;48.370;10.874;2022-10-31T07:00:16;6.00;;;4.17;;
9449;SDS011;4763;48.370;10.874;2022-10-31T07:02:43;8.93;;;4.50;;
9449;SDS011;4763;48.370;10.874;2022-10-31T07:05:10;7.73;;;4.30;;
9449;SDS011;4763;48.370;10.874;2022-10-31T07:07:37;7.37;;;4.67;;
9449;SDS011;4763;48.370;10.874;2022-10-31T07:10:05;7.40;;;4.30;;
9449;SDS011;4763;48.370;10.874;2022-10-31T07:12:32;5.83;;;3.90;;
9449;SDS011;4763;48.370;10.874;2022-10-31T07:14:58;9.40;;;4.43;;
9449;SDS011;4763;48.370;10.874;2022-10-31T07:17:25;10.80;;;3.93;;
9449;SDS011;4763;48.370;10.874;2022-10-31T07:19:52;6.20;;;4.50;;
9449;SDS011;4763;48.370;10.874;2022-10-31T07:22:19;10.53;;;4.10;;
9449;SDS011;4763;48.370;10.874;2022-10-31T07:24:45;7.30;;;3.93;;
9449;SDS011;4763;48.370;10.874;2022-10-31T07:27:13;7.53;;;3.90;;
9449;SDS011;4763;48.370;10.874;2022-10-31T07:29:40;7.30;;;4.67;;
9449;SDS011;4763;48.370;10.874;2022-10-31T07:32:07;11.83;;;4.43;;
9449;SDS011;4763;48.370;10.874;2022-10-31T07:34:34;6.37;;;4.47;;
9449;SDS011;4763;48.370;10.874;2022-10-31T07:37:00;6.97;;;3.77;;
9449;SDS011;4763;48.370;10.874;2022-10-31T07:39:27;8.33;;;4.27;;
9449;SDS011;4763;48.370;10.874;2022-10-31T07:41:54;4.73;;;3.57;;
9449;SDS011;4763;48.370;10.874;2022-10-31T07:44:25;6.90;;;4.23;;
9449;SDS011;4763;48.370;10.874;2022-10-31T07:46:52;5.57;;;4.27;;
9449;SDS011;4763;48.370;10.874;2022-10-31T07:49:18;9.57;;;4.03;;
9449;SDS011;4763;48.370;10.874;2022-10-31T07:51:45;8.57;;;4.43;;
9449;SDS011;4763;48.370;10.874;2022-10-31T07:54:12;4.63;;;3.60;;
9449;SDS011;4763;48.370;10.874;2022-10-31T07:56:38;8.13;;;4.17;;
9449;SDS011;4763;48.370;10.874;2022-10-31T07:59:05;15.10;;;4.23;;
9449;SDS011;4763;48.370;10.874;2022-10-31T08:01:33;9.23;;;4.67;;
9449;SDS011;4763;48.370;10.874;2022-10-31T08:04:00;7.67;;;4.17;;
9449;SDS011;4763;48.370;10.874;2022-10-31T08:06:27;5.10;;;3.50;;
9449;SDS011;4763;48.370;10.874;2022-10-31T08:08:53;5.03;;;3.37;;
9449;SDS011;4763;48.370;10.874;2022-10-31T08:11:20;10.87;;;5.13;;
9449;SDS011;4763;48.370;10.874;2022-10-31T08:13:47;10.80;;;3.63;;
9449;SDS011;4763;48.370;10.874;2022-10-31T08:16:14;4.33;;;3.53;;
9449;SDS011;4763;48.370;10.874;2022-10-31T08:18:42;6.03;;;3.40;;
9449;SDS011;4763;48.370;10.874;2022-10-31T08:21:08;13.93;;;4.10;;
9449;SDS011;4763;48.370;10.874;2022-10-31T08:23:36;4.87;;;3.50;;
9449;SDS011;4763;48.370;10.874;2022-10-31T08:26:02;7.10;;;3.47;;
9449;SDS011;4763;48.370;10.874;2022-10-31T08:28:31;9.07;;;4.27;;
9449;SDS011;4763;48.370;10.874;2022-10-31T08:30:58;7.70;;;3.80;;
9449;SDS011;4763;48.370;10.874;2022-10-31T08:33:24;8.20;;;4.03;;
9449;SDS011;4763;48.370;10.874;2022-10-31T08:35:53;11.40;;;3.73;;
9449;SDS011;4763;48.370;10.874;2022-10-31T08:38:19;9.63;;;3.60;;
9449;SDS011;4763;48.370;10.874;2022-10-31T08:40:47;10.23;;;4.63;;
9449;SDS011;4763;48.370;10.874;2022-10-31T08:43:15;8.83;;;3.83;;
9449;SDS011;4763;48.370;10.874;2022-10-31T08:45:43;6.17;;;3.93;;
9449;SDS011;4763;48.370;10.874;2022-10-31T08:48:13;8.20;;;4.43;;
9449;SDS011;4763;48.370;10.874;2022-10-31T08:50:43;7.60;;;3.53;;
9449;SDS011;4763;48.370;10.874;2022-10-31T08:53:12;5.10;;;3.30;;
9449;SDS011;4763;48.370;10.874;2022-10-31T08:55:40;12.37;;;4.50;;
9449;SDS011;4763;48.370;10.874;2022-10-31T08:58:09;8.17;;;3.40;;
9449;SDS011;4763;48.370;10.874;2022-10-31T09:00:37;5.87;;;3.50;;
9449;SDS011;4763;48.370;10.874;2022-10-31T09:03:05;7.13;;;3.50;;
9449;SDS011;4763;48.370;10.874;2022-10-31T09:05:38;8.73;;;3.53;;
9449;SDS011;4763;48.370;10.874;2022-10-31T09:08:06;6.23;;;3.77;;
9449;SDS011;4763;48.370;10.874;2022-10-31T09:10:35;6.77;;;3.50;;
9449;SDS011;4763;48.370;10.874;2022-10-31T09:13:05;11.57;;;4.97;;
9449;SDS011;4763;48.370;10.874;2022-10-31T09:15:33;8.97;;;4.40;;
9449;SDS011;4763;48.370;10.874;2022-10-31T09:18:01;5.90;;;3.20;;
9449;SDS011;4763;48.370;10.874;2022-10-31T09:20:31;10.63;;;4.17;;
9449;SDS011;4763;48.370;10.874;2022-10-31T09:22:59;6.40;;;4.10;;
9449;SDS011;4763;48.370;10.874;2022-10-31T09:25:27;8.60;;;3.87;;
9449;SDS011;4763;48.370;10.874;2022-10-31T09:27:56;6.77;;;4.30;;
9449;SDS011;4763;48.370;10.874;2022-10-31T09:30:24;6.10;;;4.00;;
9449;SDS011;4763;48.370;10.874;2022-10-31T09:32:54;9.00;;;5.30;;
9449;SDS011;4763;48.370;10.874;2022-10-31T09:35:21;13.60;;;5.40;;
9449;SDS011;4763;48.370;10.874;2022-10-31T09:37:53;16.70;;;5.70;;
9449;SDS011;4763;48.370;10.874;2022-10-31T09:40:20;8.90;;;5.80;;
9449;SDS011;4763;48.370;10.874;2022-10-31T09:42:51;9.80;;;5.90;;
9449;SDS011;4763;48.370;10.874;2022-10-31T09:45:28;14.40;;;6.93;;
9449;SDS011;4763;48.370;10.874;2022-10-31T09:48:02;11.53;;;6.20;;
9449;SDS011;4763;48.370;10.874;2022-10-31T09:50:41;12.33;;;6.17;;
9449;SDS011;4763;48.370;10.874;2022-10-31T09:53:15;16.20;;;7.10;;
9449;SDS011;4763;48.370;10.874;2022-10-31T09:55:49;12.40;;;6.30;;
9449;SDS011;4763;48.370;10.874;2022-10-31T09:58:19;16.27;;;7.10;;
9449;SDS011;4763;48.370;10.874;2022-10-31T10:00:49;13.67;;;6.77;;
9449;SDS011;4763;48.370;10.874;2022-10-31T10:03:20;11.63;;;6.27;;
9449;SDS011;4763;48.370;10.874;2022-10-31T10:05:54;12.60;;;6.43;;
9449;SDS011;4763;48.370;10.874;2022-10-31T10:08:28;11.60;;;6.03;;
9449;SDS011;4763;48.370;10.874;2022-10-31T10:10:58;14.63;;;6.73;;
9449;SDS011;4763;48.370;10.874;2022-10-31T10:13:35;11.57;;;6.27;;
9449;SDS011;4763;48.370;10.874;2022-10-31T10:16:14;11.60;;;6.57;;
9449;SDS011;4763;48.370;10.874;2022-10-31T10:18:53;9.27;;;5.57;;
9449;SDS011;4763;48.370;10.874;2022-10-31T10:21:32;10.70;;;5.90;;
9449;SDS011;4763;48.370;10.874;2022-10-31T10:24:25;12.20;;;6.40;;
9449;SDS011;4763;48.370;10.874;2022-10-31T10:27:01;15.73;;;6.23;;
9449;SDS011;4763;48.370;10.874;2022-10-31T10:29:37;15.70;;;6.27;;
9449;SDS011;4763;48.370;10.874;2022-10-31T10:32:13;8.87;;;5.43;;
9449;SDS011;4763;48.370;10.874;2022-10-31T10:34:47;15.70;;;6.80;;
9449;SDS011;4763;48.370;10.874;2022-10-31T10:37:21;11.57;;;6.73;;
9449;SDS011;4763;48.370;10.874;2022-10-31T10:39:54;10.63;;;6.73;;
9449;SDS011;4763;48.370;10.874;2022-10-31T10:42:26;14.37;;;7.23;;
9449;SDS011;4763;48.370;10.874;2022-10-31T10:45:13;14.13;;;6.43;;
9449;SDS011;4763;48.370;10.874;2022-10-31T10:48:04;17.17;;;7.40;;
9449;SDS011;4763;48.370;10.874;2022-10-31T10:50:36;15.10;;;7.30;;
9449;SDS011;4763;48.370;10.874;2022-10-31T10:53:09;14.10;;;7.50;;
9449;SDS011;4763;48.370;10.874;2022-10-31T10:55:56;17.63;;;7.93;;
9449;SDS011;4763;48.370;10.874;2022-10-31T10:58:28;13.53;;;7.80;;
9449;SDS011;4763;48.370;10.874;2022-10-31T11:00:54;15.17;;;8.63;;
9449;SDS011;4763;48.370;10.874;2022-10-31T11:03:23;14.67;;;7.37;;
9449;SDS011;4763;48.370;10.874;2022-10-31T11:05:50;14.37;;;7.70;;
9449;SDS011;4763;48.370;10.874;2022-10-31T11:08:24;15.70;;;8.03;;
9449;SDS011;4763;48.370;10.874;2022-10-31T11:10:56;17.37;;;8.57;;
9449;SDS011;4763;48.370;10.874;2022-10-31T11:13:25;26.63;;;8.33;;
9449;SDS011;4763;48.370;10.874;2022-10-31T11:15:57;13.17;;;7.80;;
9449;SDS011;4763;48.370;10.874;2022-10-31T11:18:27;14.67;;;7.87;;
9449;SDS011;4763;48.370;10.874;2022-10-31T11:20:56;15.10;;;8.90;;
9449;SDS011;4763;48.370;10.874;2022-10-31T11:23:25;15.17;;;8.17;;
9449;SDS011;4763;48.370;10.874;2022-10-31T11:25:54;13.87;;;8.47;;
9449;SDS011;4763;48.370;10.874;2022-10-31T11:28:23;17.30;;;8.10;;
9449;SDS011;4763;48.370;10.874;2022-10-31T11:30:51;12.73;;;7.47;;
9449;SDS011;4763;48.370;10.874;2022-10-31T11:33:21;13.80;;;7.83;;
9449;SDS011;4763;48.370;10.874;2022-10-31T11:35:54;12.83;;;7.67;;
9449;SDS011;4763;48.370;10.874;2022-10-31T11:38:21;14.80;;;7.30;;
9449;SDS011;4763;48.370;10.874;2022-10-31T11:40:53;13.97;;;7.73;;
9449;SDS011;4763;48.370;10.874;2022-10-31T11:43:22;11.97;;;8.03;;
9449;SDS011;4763;48.370;10.874;2022-10-31T11:45:49;13.53;;;7.53;;
9449;SDS011;4763;48.370;10.874;2022-10-31T11:48:17;13.97;;;8.43;;
9449;SDS011;4763;48.370;10.874;2022-10-31T11:50:48;14.37;;;7.83;;
9449;SDS011;4763;48.370;10.874;2022-10-31T11:53:19;12.13;;;8.00;;
9449;SDS011;4763;48.370;10.874;2022-10-31T11:55:59;16.33;;;9.17;;
9449;SDS011;4763;48.370;10.874;2022-10-31T11:58:30;12.63;;;7.80;;
9449;SDS011;4763;48.370;10.874;2022-10-31T12:00:57;13.27;;;8.57;;
9449;SDS011;4763;48.370;10.874;2022-10-31T12:03:32;21.20;;;8.40;;
9449;SDS011;4763;48.370;10.874;2022-10-31T12:06:05;13.40;;;7.65;;
9449;SDS011;4763;48.370;10.874;2022-10-31T12:08:38;15.30;;;8.13;;
9449;SDS011;4763;48.370;10.874;2022-10-31T12:11:08;11.23;;;7.78;;
9449;SDS011;4763;48.370;10.874;2022-10-31T12:13:48;12.52;;;7.97;;
9449;SDS011;4763;48.370;10.874;2022-10-31T12:16:22;13.23;;;7.47;;
9449;SDS011;4763;48.370;10.874;2022-10-31T12:18:58;13.27;;;7.78;;
9449;SDS011;4763;48.370;10.874;2022-10-31T12:21:34;16.05;;;8.82;;
9449;SDS011;4763;48.370;10.874;2022-10-31T12:24:32;11.52;;;7.40;;
9449;SDS011;4763;48.370;10.874;2022-10-31T12:27:12;14.88;;;8.48;;
9449;SDS011;4763;48.370;10.874;2022-10-31T12:29:49;13.48;;;7.07;;
9449;SDS011;4763;48.370;10.874;2022-10-31T12:32:29;15.55;;;8.57;;
9449;SDS011;4763;48.370;10.874;2022-10-31T12:38:07;12.68;;;7.30;;
9449;SDS011;4763;48.370;10.874;2022-10-31T12:40:53;16.45;;;8.23;;
9449;SDS011;4763;48.370;10.874;2022-10-31T12:43:32;11.50;;;7.07;;
9449;SDS011;4763;48.370;10.874;2022-10-31T12:46:07;14.93;;;7.55;;
9449;SDS011;4763;48.370;10.874;2022-10-31T12:48:46;20.52;;;8.15;;
9449;SDS011;4763;48.370;10.874;2022-10-31T12:51:40;21.13;;;7.45;;
9449;SDS011;4763;48.370;10.874;2022-10-31T12:54:18;12.43;;;7.55;;
9449;SDS011;4763;48.370;10.874;2022-10-31T12:56:58;13.35;;;7.18;;
9449;SDS011;4763;48.370;10.874;2022-10-31T12:59:34;14.45;;;8.10;;
9449;SDS011;4763;48.370;10.874;2022-10-31T13:02:10;9.57;;;6.63;;
9449;SDS011;4763;48.370;10.874;2022-10-31T13:04:43;11.02;;;6.95;;
9449;SDS011;4763;48.370;10.874;2022-10-31T13:07:15;16.90;;;7.10;;
9449;SDS011;4763;48.370;10.874;2022-10-31T13:09:49;12.77;;;7.47;;
9449;SDS011;4763;48.370;10.874;2022-10-31T13:12:21;12.40;;;7.80;;
9449;SDS011;4763;48.370;10.874;2022-10-31T13:14:50;9.98;;;6.43;;
9449;SDS011;4763;48.370;10.874;2022-10-31T13:17:22;10.05;;;6.90;;
9449;SDS011;4763;48.370;10.874;2022-10-31T13:19:54;14.77;;;6.53;;
9449;SDS011;4763;48.370;10.874;2022-10-31T13:22:30;10.98;;;7.35;;
9449;SDS011;4763;48.370;10.874;2022-10-31T13:25:02;12.15;;;7.43;;
9449;SDS011;4763;48.370;10.874;2022-10-31T13:27:40;12.88;;;7.05;;
9449;SDS011;4763;48.370;10.874;2022-10-31T13:30:12;13.82;;;8.40;;
9449;SDS011;4763;48.370;10.874;2022-10-31T13:32:42;12.52;;;7.10;;
9449;SDS011;4763;48.370;10.874;2022-10-31T13:35:14;14.38;;;7.53;;
9449;SDS011;4763;48.370;10.874;2022-10-31T13:37:48;12.55;;;7.97;;
9449;SDS011;4763;48.370;10.874;2022-10-31T13:40:21;12.18;;;7.82;;
9449;SDS011;4763;48.370;10.874;2022-10-31T13:43:02;13.20;;;7.55;;
9449;SDS011;4763;48.370;10.874;2022-10-31T13:45:46;13.82;;;7.82;;
9449;SDS011;4763;48.370;10.874;2022-10-31T13:48:18;15.75;;;9.25;;
9449;SDS011;4763;48.370;10.874;2022-10-31T13:50:59;12.20;;;7.90;;
9449;SDS011;4763;48.370;10.874;2022-10-31T13:53:37;17.15;;;9.95;;
9449;SDS011;4763;48.370;10.874;2022-10-31T13:56:14;16.30;;;8.27;;
9449;SDS011;4763;48.370;10.874;2022-10-31T13:58:55;14.35;;;7.50;;
9449;SDS011;4763;48.370;10.874;2022-10-31T14:01:28;15.88;;;7.10;;
9449;SDS011;4763;48.370;10.874;2022-10-31T14:03:58;13.77;;;8.13;;
9449;SDS011;4763;48.370;10.874;2022-10-31T14:06:36;13.63;;;8.45;;
9449;SDS011;4763;48.370;10.874;2022-10-31T14:09:24;10.50;;;7.50;;
9449;SDS011;4763;48.370;10.874;2022-10-31T14:11:53;13.95;;;8.18;;
9449;SDS011;4763;48.370;10.874;2022-10-31T14:14:30;11.43;;;8.93;;
9449;SDS011;4763;48.370;10.874;2022-10-31T14:17:22;12.35;;;7.68;;
9449;SDS011;4763;48.370;10.874;2022-10-31T14:19:56;11.67;;;8.17;;
9449;SDS011;4763;48.370;10.874;2022-10-31T14:22:31;13.38;;;8.70;;
9449;SDS011;4763;48.370;10.874;2022-10-31T14:24:59;11.25;;;6.85;;
9449;SDS011;4763;48.370;10.874;2022-10-31T14:27:33;13.20;;;7.47;;
9449;SDS011;4763;48.370;10.874;2022-10-31T14:30:17;12.93;;;8.37;;
9449;SDS011;4763;48.370;10.874;2022-10-31T14:32:49;17.17;;;7.23;;
9449;SDS011;4763;48.370;10.874;2022-10-31T14:35:18;13.07;;;8.00;;
9449;SDS011;4763;48.370;10.874;2022-10-31T14:38:00;13.63;;;7.63;;
9449;SDS011;4763;48.370;10.874;2022-10-31T14:40:35;11.98;;;7.70;;
9449;SDS011;4763;48.370;10.874;2022-10-31T14:46:03;13.27;;;7.47;;
9449;SDS011;4763;48.370;10.874;2022-10-31T14:48:39;15.23;;;8.03;;
9449;SDS011;4763;48.370;10.874;2022-10-31T14:51:19;13.93;;;8.10;;
9449;SDS011;4763;48.370;10.874;2022-10-31T14:53:48;16.33;;;8.27;;
9449;SDS011;4763;48.370;10.874;2022-10-31T14:56:23;12.27;;;8.63;;
9449;SDS011;4763;48.370;10.874;2022-10-31T14:59:18;10.20;;;8.53;;
9449;SDS011;4763;48.370;10.874;2022-10-31T15:01:52;10.77;;;8.83;;
9449;SDS011;4763;48.370;10.874;2022-10-31T15:04:28;14.47;;;8.63;;
9449;SDS011;4763;48.370;10.874;2022-10-31T15:06:59;12.30;;;8.17;;
9449;SDS011;4763;48.370;10.874;2022-10-31T15:09:31;10.93;;;8.30;;
9449;SDS011;4763;48.370;10.874;2022-10-31T15:11:59;13.67;;;8.53;;
9449;SDS011;4763;48.370;10.874;2022-10-31T15:14:30;10.50;;;8.17;;
9449;SDS011;4763;48.370;10.874;2022-10-31T15:17:01;11.03;;;8.47;;
9449;SDS011;4763;48.370;10.874;2022-10-31T15:19:29;12.17;;;9.43;;
9449;SDS011;4763;48.370;10.874;2022-10-31T15:21:58;12.60;;;8.47;;
9449;SDS011;4763;48.370;10.874;2022-10-31T15:24:27;14.37;;;8.63;;